sensor_id;sensor_type;location;lat;lon;timestamp;pressure;altitude;pressure_sealevel;temperature;humidity
68873;BME280;55907;50.806;12.882;2022-12-29T00:00:18;967.3;;;9.6;61.1
68873;BME280;55907;50.806;12.882;2022-12-29T00:03:20;967.1;;;9.7;61.1
68873;BME280;55907;50.806;12.882;2022-12-29T00:06:21;967.1;;;9.7;61.1
68873;BME280;55907;50.806;12.882;2022-12-29T00:09:23;967.0;;;9.7;61.4
68873;BME280;55907;50.806;12.882;2022-12-29T00:12:24;967.0;;;9.7;61.9
68873;BME280;55907;50.806;12.882;2022-12-29T00:15:26;967.1;;;9.7;63.5
68873;BME280;55907;50.806;12.882;2022-12-29T00:18:27;967.0;;;9.6;63.8
68873;BME280;55907;50.806;12.882;2022-12-29T00:21:30;967.0;;;9.6;64.5
68873;BME280;55907;50.806;12.882;2022-12-29T00:24:30;966.9;;;9.5;65.0
68873;BME280;55907;50.806;12.882;2022-12-29T00:27:32;967.0;;;9.4;65.9
68873;BME280;55907;50.806;12.882;2022-12-29T00:30:35;966.9;;;9.4;67.8
68873;BME280;55907;50.806;12.882;2022-12-29T00:33:35;967.0;;;9.3;67.8
68873;BME280;55907;50.806;12.882;2022-12-29T00:36:38;966.8;;;9.2;68.2
68873;BME280;55907;50.806;12.882;2022-12-29T00:39:38;966.8;;;9.2;68.6
68873;BME280;55907;50.806;12.882;2022-12-29T00:42:39;966.9;;;9.1;68.7
68873;BME280;55907;50.806;12.882;2022-12-29T00:45:41;966.9;;;9.1;68.6
68873;BME280;55907;50.806;12.882;2022-12-29T00:48:42;966.8;;;9.1;68.5
68873;BME280;55907;50.806;12.882;2022-12-29T00:51:44;966.7;;;9.1;68.6
68873;BME280;55907;50.806;12.882;2022-12-29T00:54:45;966.8;;;9.1;69.1
68873;BME280;55907;50.806;12.882;2022-12-29T00:57:47;966.8;;;9.1;68.9
68873;BME280;55907;50.806;12.882;2022-12-29T01:00:48;966.8;;;9.1;69.5
68873;BME280;55907;50.806;12.882;2022-12-29T01:03:50;966.9;;;9.0;69.8
68873;BME280;55907;50.806;12.882;2022-12-29T01:06:51;966.8;;;8.9;69.4
68873;BME280;55907;50.806;12.882;2022-12-29T01:09:53;966.8;;;8.9;69.7
68873;BME280;55907;50.806;12.882;2022-12-29T01:12:54;967.0;;;8.9;69.8
68873;BME280;55907;50.806;12.882;2022-12-29T01:15:56;967.0;;;8.9;69.6
68873;BME280;55907;50.806;12.882;2022-12-29T01:18:58;967.0;;;8.9;69.3
68873;BME280;55907;50.806;12.882;2022-12-29T01:21:59;967.1;;;9.0;69.5
68873;BME280;55907;50.806;12.882;2022-12-29T01:25:00;966.9;;;8.9;69.6
68873;BME280;55907;50.806;12.882;2022-12-29T01:28:02;967.0;;;9.0;69.7
68873;BME280;55907;50.806;12.882;2022-12-29T01:31:03;967.0;;;9.0;69.9
68873;BME280;55907;50.806;12.882;2022-12-29T01:34:05;966.9;;;8.9;70.0
68873;BME280;55907;50.806;12.882;2022-12-29T01:37:06;966.9;;;9.0;69.7
68873;BME280;55907;50.806;12.882;2022-12-29T01:40:08;966.7;;;9.0;69.9
68873;BME280;55907;50.806;12.882;2022-12-29T01:43:10;966.6;;;9.0;69.9
68873;BME280;55907;50.806;12.882;2022-12-29T01:46:18;966.7;;;9.0;70.4
68873;BME280;55907;50.806;12.882;2022-12-29T01:49:15;966.6;;;9.0;70.4
68873;BME280;55907;50.806;12.882;2022-12-29T01:52:14;966.6;;;9.0;70.0
68873;BME280;55907;50.806;12.882;2022-12-29T01:55:15;966.7;;;9.0;69.7
68873;BME280;55907;50.806;12.882;2022-12-29T01:58:20;966.6;;;9.0;69.4
68873;BME280;55907;50.806;12.882;2022-12-29T02:01:19;966.7;;;9.0;69.0
68873;BME280;55907;50.806;12.882;2022-12-29T02:04:22;966.5;;;9.0;68.8
68873;BME280;55907;50.806;12.882;2022-12-29T02:07:24;966.6;;;9.1;68.7
68873;BME280;55907;50.806;12.882;2022-12-29T02:10:25;966.5;;;9.1;68.4
68873;BME280;55907;50.806;12.882;2022-12-29T02:13:24;966.7;;;9.2;68.3
68873;BME280;55907;50.806;12.882;2022-12-29T02:16:35;966.5;;;9.2;68.2
68873;BME280;55907;50.806;12.882;2022-12-29T02:22:32;966.5;;;9.3;68.2
68873;BME280;55907;50.806;12.882;2022-12-29T02:25:41;966.4;;;9.3;67.9
68873;BME280;55907;50.806;12.882;2022-12-29T02:28:47;966.4;;;9.4;67.6
68873;BME280;55907;50.806;12.882;2022-12-29T02:31:38;966.4;;;9.4;67.6
68873;BME280;55907;50.806;12.882;2022-12-29T02:34:42;966.4;;;9.4;67.6
68873;BME280;55907;50.806;12.882;2022-12-29T02:37:41;966.4;;;9.5;67.7
68873;BME280;55907;50.806;12.882;2022-12-29T02:40:41;966.3;;;9.6;67.6
68873;BME280;55907;50.806;12.882;2022-12-29T02:43:47;966.3;;;9.6;67.5
68873;BME280;55907;50.806;12.882;2022-12-29T02:46:45;966.3;;;9.6;67.3
68873;BME280;55907;50.806;12.882;2022-12-29T02:49:48;966.2;;;9.6;67.5
68873;BME280;55907;50.806;12.882;2022-12-29T02:52:47;966.4;;;9.7;67.5
68873;BME280;55907;50.806;12.882;2022-12-29T02:55:47;966.1;;;9.7;67.3
68873;BME280;55907;50.806;12.882;2022-12-29T02:58:47;966.3;;;9.8;67.0
68873;BME280;55907;50.806;12.882;2022-12-29T03:02:03;966.1;;;9.8;66.9
68873;BME280;55907;50.806;12.882;2022-12-29T03:07:56;966.3;;;10.0;66.4
68873;BME280;55907;50.806;12.882;2022-12-29T03:10:58;966.2;;;10.0;66.3
68873;BME280;55907;50.806;12.882;2022-12-29T03:13:56;966.2;;;10.0;66.3
68873;BME280;55907;50.806;12.882;2022-12-29T03:16:59;966.2;;;10.0;66.3
68873;BME280;55907;50.806;12.882;2022-12-29T03:20:02;966.1;;;10.1;66.3
68873;BME280;55907;50.806;12.882;2022-12-29T03:23:00;966.2;;;10.0;66.6
68873;BME280;55907;50.806;12.882;2022-12-29T03:26:03;966.3;;;10.1;66.7
68873;BME280;55907;50.806;12.882;2022-12-29T03:29:02;966.1;;;10.1;67.1
68873;BME280;55907;50.806;12.882;2022-12-29T03:32:05;966.0;;;10.0;67.4
68873;BME280;55907;50.806;12.882;2022-12-29T03:35:06;965.9;;;10.1;67.4
68873;BME280;55907;50.806;12.882;2022-12-29T03:38:11;966.0;;;10.1;67.7
68873;BME280;55907;50.806;12.882;2022-12-29T03:41:10;965.9;;;10.2;67.7
68873;BME280;55907;50.806;12.882;2022-12-29T03:44:09;965.9;;;10.2;67.9
68873;BME280;55907;50.806;12.882;2022-12-29T03:47:11;965.9;;;10.2;68.0
68873;BME280;55907;50.806;12.882;2022-12-29T03:50:13;966.0;;;10.2;68.1
68873;BME280;55907;50.806;12.882;2022-12-29T03:53:13;965.8;;;10.2;68.2
68873;BME280;55907;50.806;12.882;2022-12-29T03:56:15;965.9;;;10.2;68.2
68873;BME280;55907;50.806;12.882;2022-12-29T03:59:16;965.9;;;10.2;68.2
68873;BME280;55907;50.806;12.882;2022-12-29T04:05:20;965.8;;;10.4;67.6
68873;BME280;55907;50.806;12.882;2022-12-29T04:08:21;965.9;;;10.4;67.6
68873;BME280;55907;50.806;12.882;2022-12-29T04:11:22;965.9;;;10.4;67.5
68873;BME280;55907;50.806;12.882;2022-12-29T04:14:24;966.0;;;10.4;67.1
68873;BME280;55907;50.806;12.882;2022-12-29T04:17:25;966.0;;;10.4;67.3
68873;BME280;55907;50.806;12.882;2022-12-29T04:20:27;965.9;;;10.3;67.3
68873;BME280;55907;50.806;12.882;2022-12-29T04:23:29;966.0;;;10.3;67.2
68873;BME280;55907;50.806;12.882;2022-12-29T04:26:30;966.0;;;10.2;67.6
68873;BME280;55907;50.806;12.882;2022-12-29T04:29:31;966.1;;;10.2;67.5
68873;BME280;55907;50.806;12.882;2022-12-29T04:32:33;965.9;;;10.1;67.9
68873;BME280;55907;50.806;12.882;2022-12-29T04:35:34;966.0;;;10.2;67.9
68873;BME280;55907;50.806;12.882;2022-12-29T04:38:35;966.1;;;10.2;68.1
68873;BME280;55907;50.806;12.882;2022-12-29T04:41:37;966.0;;;10.2;68.3
68873;BME280;55907;50.806;12.882;2022-12-29T04:44:38;966.0;;;10.2;68.3
68873;BME280;55907;50.806;12.882;2022-12-29T04:47:40;966.1;;;10.2;68.2
68873;BME280;55907;50.806;12.882;2022-12-29T04:50:42;966.0;;;10.2;68.2
68873;BME280;55907;50.806;12.882;2022-12-29T04:53:43;966.0;;;10.2;68.1
68873;BME280;55907;50.806;12.882;2022-12-29T04:56:45;965.9;;;10.2;68.0
68873;BME280;55907;50.806;12.882;2022-12-29T04:59:46;965.9;;;10.2;68.1
68873;BME280;55907;50.806;12.882;2022-12-29T05:02:48;965.8;;;10.2;68.2
68873;BME280;55907;50.806;12.882;2022-12-29T05:05:49;965.8;;;10.2;68.4
68873;BME280;55907;50.806;12.882;2022-12-29T05:08:50;965.7;;;10.2;68.4
68873;BME280;55907;50.806;12.882;2022-12-29T05:11:52;965.8;;;10.2;68.6
68873;BME280;55907;50.806;12.882;2022-12-29T05:14:53;965.7;;;10.2;68.6
68873;BME280;55907;50.806;12.882;2022-12-29T05:17:55;965.8;;;10.3;68.6
68873;BME280;55907;50.806;12.882;2022-12-29T05:20:56;965.8;;;10.3;68.4
68873;BME280;55907;50.806;12.882;2022-12-29T05:23:58;965.8;;;10.2;68.2
68873;BME280;55907;50.806;12.882;2022-12-29T05:26:59;965.8;;;10.2;68.2
68873;BME280;55907;50.806;12.882;2022-12-29T05:30:01;965.8;;;10.2;67.9
68873;BME280;55907;50.806;12.882;2022-12-29T05:33:02;965.9;;;10.2;67.9
68873;BME280;55907;50.806;12.882;2022-12-29T05:36:05;965.9;;;10.3;67.9
68873;BME280;55907;50.806;12.882;2022-12-29T05:39:05;965.9;;;10.2;67.8
68873;BME280;55907;50.806;12.882;2022-12-29T05:42:07;965.9;;;10.2;67.9
68873;BME280;55907;50.806;12.882;2022-12-29T05:45:08;966.0;;;10.1;68.0
68873;BME280;55907;50.806;12.882;2022-12-29T05:48:10;966.1;;;10.1;68.2
68873;BME280;55907;50.806;12.882;2022-12-29T05:51:11;966.0;;;10.1;68.3
68873;BME280;55907;50.806;12.882;2022-12-29T05:57:14;965.8;;;10.1;68.5
68873;BME280;55907;50.806;12.882;2022-12-29T06:00:16;965.9;;;10.0;68.7
68873;BME280;55907;50.806;12.882;2022-12-29T06:03:17;965.9;;;9.9;69.4
68873;BME280;55907;50.806;12.882;2022-12-29T06:06:19;965.9;;;9.9;69.7
68873;BME280;55907;50.806;12.882;2022-12-29T06:09:20;965.9;;;9.9;70.1
68873;BME280;55907;50.806;12.882;2022-12-29T06:12:22;966.0;;;9.8;70.4
68873;BME280;55907;50.806;12.882;2022-12-29T06:15:23;966.0;;;9.8;71.0
68873;BME280;55907;50.806;12.882;2022-12-29T06:18:25;966.2;;;9.8;71.1
68873;BME280;55907;50.806;12.882;2022-12-29T06:21:26;965.9;;;9.7;71.7
68873;BME280;55907;50.806;12.882;2022-12-29T06:24:28;965.9;;;9.7;71.8
68873;BME280;55907;50.806;12.882;2022-12-29T06:27:29;966.0;;;9.8;71.7
68873;BME280;55907;50.806;12.882;2022-12-29T06:30:31;966.1;;;9.8;71.6
68873;BME280;55907;50.806;12.882;2022-12-29T06:33:32;965.9;;;9.7;71.6
68873;BME280;55907;50.806;12.882;2022-12-29T06:36:34;965.9;;;9.8;71.6
68873;BME280;55907;50.806;12.882;2022-12-29T06:39:36;965.8;;;9.9;71.3
68873;BME280;55907;50.806;12.882;2022-12-29T06:42:37;965.9;;;9.8;71.5
68873;BME280;55907;50.806;12.882;2022-12-29T06:45:39;965.9;;;9.8;71.5
68873;BME280;55907;50.806;12.882;2022-12-29T06:48:40;965.9;;;9.8;71.6
68873;BME280;55907;50.806;12.882;2022-12-29T06:51:41;965.9;;;9.9;71.5
68873;BME280;55907;50.806;12.882;2022-12-29T06:54:43;965.9;;;9.9;71.6
68873;BME280;55907;50.806;12.882;2022-12-29T06:57:44;965.8;;;9.9;71.5
68873;BME280;55907;50.806;12.882;2022-12-29T07:00:46;965.8;;;9.9;71.2
68873;BME280;55907;50.806;12.882;2022-12-29T07:03:47;965.8;;;9.9;71.1
68873;BME280;55907;50.806;12.882;2022-12-29T07:06:49;965.6;;;9.8;71.2
68873;BME280;55907;50.806;12.882;2022-12-29T07:09:50;965.7;;;9.8;71.0
68873;BME280;55907;50.806;12.882;2022-12-29T07:12:52;965.6;;;9.7;70.8
68873;BME280;55907;50.806;12.882;2022-12-29T07:15:53;965.7;;;9.7;70.7
68873;BME280;55907;50.806;12.882;2022-12-29T07:18:56;965.8;;;9.7;70.6
68873;BME280;55907;50.806;12.882;2022-12-29T07:21:56;965.8;;;9.7;70.4
68873;BME280;55907;50.806;12.882;2022-12-29T07:27:59;965.9;;;9.6;69.8
68873;BME280;55907;50.806;12.882;2022-12-29T07:31:01;966.0;;;9.6;69.5
68873;BME280;55907;50.806;12.882;2022-12-29T07:34:02;966.1;;;9.6;69.2
68873;BME280;55907;50.806;12.882;2022-12-29T07:37:04;965.8;;;9.6;69.0
68873;BME280;55907;50.806;12.882;2022-12-29T07:40:08;965.8;;;9.6;68.8
68873;BME280;55907;50.806;12.882;2022-12-29T07:43:07;965.8;;;9.6;68.6
68873;BME280;55907;50.806;12.882;2022-12-29T07:46:09;965.7;;;9.6;68.3
68873;BME280;55907;50.806;12.882;2022-12-29T07:49:10;965.8;;;9.7;68.1
68873;BME280;55907;50.806;12.882;2022-12-29T07:52:12;965.9;;;9.7;67.7
68873;BME280;55907;50.806;12.882;2022-12-29T07:55:14;965.9;;;9.8;67.3
68873;BME280;55907;50.806;12.882;2022-12-29T07:58:15;965.9;;;9.8;67.0
68873;BME280;55907;50.806;12.882;2022-12-29T08:01:16;966.0;;;9.8;66.7
68873;BME280;55907;50.806;12.882;2022-12-29T08:04:18;966.0;;;9.8;66.7
68873;BME280;55907;50.806;12.882;2022-12-29T08:07:19;966.1;;;9.9;66.4
68873;BME280;55907;50.806;12.882;2022-12-29T08:10:21;966.1;;;10.0;66.2
68873;BME280;55907;50.806;12.882;2022-12-29T08:13:22;966.2;;;10.0;66.5
68873;BME280;55907;50.806;12.882;2022-12-29T08:16:24;966.3;;;10.1;66.7
68873;BME280;55907;50.806;12.882;2022-12-29T08:22:27;966.2;;;10.3;65.9
68873;BME280;55907;50.806;12.882;2022-12-29T08:25:28;966.4;;;10.3;65.4
68873;BME280;55907;50.806;12.882;2022-12-29T08:28:30;966.4;;;10.3;65.0
68873;BME280;55907;50.806;12.882;2022-12-29T08:31:31;966.3;;;10.3;65.0
68873;BME280;55907;50.806;12.882;2022-12-29T08:34:33;966.3;;;10.2;65.0
68873;BME280;55907;50.806;12.882;2022-12-29T08:37:34;966.4;;;10.3;65.2
68873;BME280;55907;50.806;12.882;2022-12-29T08:40:36;966.4;;;10.3;65.3
68873;BME280;55907;50.806;12.882;2022-12-29T08:43:37;966.3;;;10.4;65.5
68873;BME280;55907;50.806;12.882;2022-12-29T08:46:39;966.3;;;10.4;65.3
68873;BME280;55907;50.806;12.882;2022-12-29T08:49:40;966.2;;;10.4;65.1
68873;BME280;55907;50.806;12.882;2022-12-29T08:52:42;966.3;;;10.5;64.8
68873;BME280;55907;50.806;12.882;2022-12-29T08:55:45;966.1;;;10.5;64.3
68873;BME280;55907;50.806;12.882;2022-12-29T08:58:45;966.2;;;10.5;64.2
68873;BME280;55907;50.806;12.882;2022-12-29T09:01:46;966.3;;;10.5;64.2
68873;BME280;55907;50.806;12.882;2022-12-29T09:04:48;966.2;;;10.6;64.0
68873;BME280;55907;50.806;12.882;2022-12-29T09:07:49;966.3;;;10.7;63.6
68873;BME280;55907;50.806;12.882;2022-12-29T09:10:51;966.2;;;10.9;62.9
68873;BME280;55907;50.806;12.882;2022-12-29T09:13:53;966.2;;;11.0;61.6
68873;BME280;55907;50.806;12.882;2022-12-29T09:16:54;966.1;;;11.6;60.3
68873;BME280;55907;50.806;12.882;2022-12-29T09:19:55;966.2;;;11.7;59.5
68873;BME280;55907;50.806;12.882;2022-12-29T09:22:57;966.1;;;11.6;59.7
68873;BME280;55907;50.806;12.882;2022-12-29T09:25:58;966.2;;;11.4;59.8
68873;BME280;55907;50.806;12.882;2022-12-29T09:29:00;966.1;;;11.6;58.9
68873;BME280;55907;50.806;12.882;2022-12-29T09:32:01;966.2;;;11.9;58.4
68873;BME280;55907;50.806;12.882;2022-12-29T09:38:04;966.1;;;11.6;58.7
68873;BME280;55907;50.806;12.882;2022-12-29T09:41:11;966.3;;;11.4;59.2
68873;BME280;55907;50.806;12.882;2022-12-29T09:44:15;966.2;;;11.6;59.3
68873;BME280;55907;50.806;12.882;2022-12-29T09:47:11;966.1;;;11.8;58.8
68873;BME280;55907;50.806;12.882;2022-12-29T09:50:17;966.1;;;11.8;59.1
68873;BME280;55907;50.806;12.882;2022-12-29T09:53:14;966.4;;;11.8;59.6
68873;BME280;55907;50.806;12.882;2022-12-29T09:56:15;966.1;;;11.9;59.7
68873;BME280;55907;50.806;12.882;2022-12-29T09:59:17;966.2;;;11.9;60.1
68873;BME280;55907;50.806;12.882;2022-12-29T10:02:23;966.1;;;11.9;60.2
68873;BME280;55907;50.806;12.882;2022-12-29T10:05:23;966.1;;;11.9;60.5
68873;BME280;55907;50.806;12.882;2022-12-29T10:08:27;965.9;;;11.9;61.0
68873;BME280;55907;50.806;12.882;2022-12-29T10:11:27;965.9;;;12.1;60.6
68873;BME280;55907;50.806;12.882;2022-12-29T10:14:35;965.9;;;12.5;59.6
68873;BME280;55907;50.806;12.882;2022-12-29T10:17:29;965.9;;;12.5;59.6
68873;BME280;55907;50.806;12.882;2022-12-29T10:20:30;965.9;;;12.8;59.0
68873;BME280;55907;50.806;12.882;2022-12-29T10:23:29;965.9;;;12.8;58.7
68873;BME280;55907;50.806;12.882;2022-12-29T10:26:31;965.9;;;12.9;58.1
68873;BME280;55907;50.806;12.882;2022-12-29T10:29:33;965.9;;;13.1;57.4
68873;BME280;55907;50.806;12.882;2022-12-29T10:32:34;965.9;;;13.2;57.6
68873;BME280;55907;50.806;12.882;2022-12-29T10:35:35;965.8;;;13.2;57.2
68873;BME280;55907;50.806;12.882;2022-12-29T10:38:37;966.0;;;13.3;56.9
68873;BME280;55907;50.806;12.882;2022-12-29T10:44:36;965.8;;;13.8;55.5
68873;BME280;55907;50.806;12.882;2022-12-29T10:47:43;965.6;;;14.2;54.4
68873;BME280;55907;50.806;12.882;2022-12-29T10:50:40;965.7;;;14.8;52.7
68873;BME280;55907;50.806;12.882;2022-12-29T10:53:45;965.8;;;15.6;51.0
68873;BME280;55907;50.806;12.882;2022-12-29T10:56:45;965.8;;;16.1;49.8
68873;BME280;55907;50.806;12.882;2022-12-29T10:59:44;965.8;;;15.7;49.7
68873;BME280;55907;50.806;12.882;2022-12-29T11:03:01;965.8;;;14.8;51.7
68873;BME280;55907;50.806;12.882;2022-12-29T11:05:52;965.7;;;14.3;53.1
68873;BME280;55907;50.806;12.882;2022-12-29T11:08:54;965.7;;;13.6;54.7
68873;BME280;55907;50.806;12.882;2022-12-29T11:11:50;965.6;;;13.3;55.6
68873;BME280;55907;50.806;12.882;2022-12-29T11:15:02;965.8;;;13.4;55.7
68873;BME280;55907;50.806;12.882;2022-12-29T11:17:56;965.6;;;13.4;55.7
68873;BME280;55907;50.806;12.882;2022-12-29T11:20:56;965.7;;;13.5;55.5
68873;BME280;55907;50.806;12.882;2022-12-29T11:23:57;965.7;;;13.3;55.3
68873;BME280;55907;50.806;12.882;2022-12-29T11:27:10;965.8;;;13.1;56.1
68873;BME280;55907;50.806;12.882;2022-12-29T11:29:58;965.7;;;12.9;56.6
68873;BME280;55907;50.806;12.882;2022-12-29T11:33:03;965.7;;;12.7;56.9
68873;BME280;55907;50.806;12.882;2022-12-29T11:36:04;965.7;;;12.6;57.4
68873;BME280;55907;50.806;12.882;2022-12-29T11:39:03;965.7;;;12.4;57.9
68873;BME280;55907;50.806;12.882;2022-12-29T11:42:06;965.6;;;12.4;58.1
68873;BME280;55907;50.806;12.882;2022-12-29T11:45:14;965.6;;;12.3;58.0
68873;BME280;55907;50.806;12.882;2022-12-29T11:48:09;965.7;;;12.3;58.2
68873;BME280;55907;50.806;12.882;2022-12-29T11:51:10;965.6;;;12.2;58.3
68873;BME280;55907;50.806;12.882;2022-12-29T11:54:16;965.6;;;12.3;58.2
68873;BME280;55907;50.806;12.882;2022-12-29T11:57:13;965.7;;;12.4;58.0
68873;BME280;55907;50.806;12.882;2022-12-29T12:00:16;965.7;;;12.4;57.7
68873;BME280;55907;50.806;12.882;2022-12-29T12:03:17;965.6;;;12.5;57.4
68873;BME280;55907;50.806;12.882;2022-12-29T12:06:19;965.6;;;12.5;57.4
68873;BME280;55907;50.806;12.882;2022-12-29T12:09:23;965.4;;;12.6;57.2
68873;BME280;55907;50.806;12.882;2022-12-29T12:12:23;965.6;;;12.7;57.0
68873;BME280;55907;50.806;12.882;2022-12-29T12:15:24;965.6;;;12.9;56.8
68873;BME280;55907;50.806;12.882;2022-12-29T12:18:31;965.5;;;12.8;56.5
68873;BME280;55907;50.806;12.882;2022-12-29T12:21:30;965.4;;;12.7;56.7
68873;BME280;55907;50.806;12.882;2022-12-29T12:24:36;965.5;;;12.9;56.6
68873;BME280;55907;50.806;12.882;2022-12-29T12:27:30;965.4;;;12.8;56.7
68873;BME280;55907;50.806;12.882;2022-12-29T12:30:33;965.4;;;12.9;56.8
68873;BME280;55907;50.806;12.882;2022-12-29T12:33:32;965.4;;;13.0;56.7
68873;BME280;55907;50.806;12.882;2022-12-29T12:36:46;965.2;;;13.2;56.3
68873;BME280;55907;50.806;12.882;2022-12-29T12:39:37;965.3;;;13.3;56.0
68873;BME280;55907;50.806;12.882;2022-12-29T12:42:42;965.3;;;13.5;55.4
68873;BME280;55907;50.806;12.882;2022-12-29T12:45:43;965.2;;;13.8;54.8
68873;BME280;55907;50.806;12.882;2022-12-29T12:48:52;965.3;;;13.7;54.7
68873;BME280;55907;50.806;12.882;2022-12-29T12:51:44;965.2;;;13.5;55.1
68873;BME280;55907;50.806;12.882;2022-12-29T12:54:49;965.3;;;13.4;55.3
68873;BME280;55907;50.806;12.882;2022-12-29T12:57:48;965.3;;;13.3;55.7
68873;BME280;55907;50.806;12.882;2022-12-29T13:00:49;965.3;;;13.1;56.2
68873;BME280;55907;50.806;12.882;2022-12-29T13:03:53;965.2;;;13.1;56.1
68873;BME280;55907;50.806;12.882;2022-12-29T13:06:51;965.2;;;12.9;56.9
68873;BME280;55907;50.806;12.882;2022-12-29T13:09:57;965.3;;;12.8;57.2
68873;BME280;55907;50.806;12.882;2022-12-29T13:12:52;965.3;;;12.9;57.2
68873;BME280;55907;50.806;12.882;2022-12-29T13:18:58;965.3;;;12.8;57.4
68873;BME280;55907;50.806;12.882;2022-12-29T13:22:00;965.4;;;12.7;57.6
68873;BME280;55907;50.806;12.882;2022-12-29T13:25:02;965.4;;;12.7;57.7
68873;BME280;55907;50.806;12.882;2022-12-29T13:28:00;965.4;;;12.7;57.9
68873;BME280;55907;50.806;12.882;2022-12-29T13:31:01;965.5;;;12.7;58.0
68873;BME280;55907;50.806;12.882;2022-12-29T13:34:02;965.5;;;12.6;58.2
68873;BME280;55907;50.806;12.882;2022-12-29T13:37:02;965.6;;;12.6;58.1
68873;BME280;55907;50.806;12.882;2022-12-29T13:40:10;965.6;;;12.6;58.2
68873;BME280;55907;50.806;12.882;2022-12-29T13:43:03;965.5;;;12.5;58.4
68873;BME280;55907;50.806;12.882;2022-12-29T13:46:07;965.6;;;12.4;58.3
68873;BME280;55907;50.806;12.882;2022-12-29T13:49:10;965.5;;;12.4;58.5
68873;BME280;55907;50.806;12.882;2022-12-29T13:52:13;965.7;;;12.4;58.7
68873;BME280;55907;50.806;12.882;2022-12-29T13:55:21;965.6;;;12.3;58.5
68873;BME280;55907;50.806;12.882;2022-12-29T13:58:14;965.5;;;12.3;58.6
68873;BME280;55907;50.806;12.882;2022-12-29T14:01:17;965.5;;;12.3;58.5
68873;BME280;55907;50.806;12.882;2022-12-29T14:04:14;965.5;;;12.2;58.6
68873;BME280;55907;50.806;12.882;2022-12-29T14:07:16;965.5;;;12.2;58.6
68873;BME280;55907;50.806;12.882;2022-12-29T14:10:27;965.6;;;12.2;58.7
68873;BME280;55907;50.806;12.882;2022-12-29T14:13:20;965.7;;;12.1;59.1
68873;BME280;55907;50.806;12.882;2022-12-29T14:16:30;965.9;;;12.1;59.8
68873;BME280;55907;50.806;12.882;2022-12-29T14:19:24;965.9;;;12.0;61.3
68873;BME280;55907;50.806;12.882;2022-12-29T14:22:24;965.9;;;11.8;63.6
68873;BME280;55907;50.806;12.882;2022-12-29T14:28:26;966.1;;;11.4;67.5
68873;BME280;55907;50.806;12.882;2022-12-29T14:31:35;965.8;;;11.3;68.0
68873;BME280;55907;50.806;12.882;2022-12-29T14:34:30;965.8;;;11.1;68.2
68873;BME280;55907;50.806;12.882;2022-12-29T14:37:31;965.7;;;11.1;67.9
68873;BME280;55907;50.806;12.882;2022-12-29T14:40:31;965.8;;;11.1;67.0
68873;BME280;55907;50.806;12.882;2022-12-29T14:43:32;965.8;;;11.1;66.3
68873;BME280;55907;50.806;12.882;2022-12-29T14:46:45;966.0;;;11.2;66.2
68873;BME280;55907;50.806;12.882;2022-12-29T14:49:40;966.0;;;11.1;66.6
68873;BME280;55907;50.806;12.882;2022-12-29T14:52:44;966.0;;;11.1;66.5
68873;BME280;55907;50.806;12.882;2022-12-29T14:55:40;966.0;;;11.1;66.5
68873;BME280;55907;50.806;12.882;2022-12-29T14:58:44;966.1;;;11.0;66.6
68873;BME280;55907;50.806;12.882;2022-12-29T15:01:47;966.3;;;10.9;66.3
68873;BME280;55907;50.806;12.882;2022-12-29T15:04:43;966.2;;;10.9;65.9
68873;BME280;55907;50.806;12.882;2022-12-29T15:07:44;966.2;;;10.9;65.9
68873;BME280;55907;50.806;12.882;2022-12-29T15:10:51;966.3;;;10.9;65.6
68873;BME280;55907;50.806;12.882;2022-12-29T15:13:48;966.3;;;10.9;65.9
68873;BME280;55907;50.806;12.882;2022-12-29T15:16:49;966.2;;;10.8;65.8
68873;BME280;55907;50.806;12.882;2022-12-29T15:19:50;966.4;;;10.8;65.8
68873;BME280;55907;50.806;12.882;2022-12-29T15:22:55;966.4;;;10.8;65.9
68873;BME280;55907;50.806;12.882;2022-12-29T15:25:55;966.4;;;10.7;66.0
68873;BME280;55907;50.806;12.882;2022-12-29T15:28:55;966.5;;;10.6;66.3
68873;BME280;55907;50.806;12.882;2022-12-29T15:31:58;966.5;;;10.6;66.4
68873;BME280;55907;50.806;12.882;2022-12-29T15:34:58;966.5;;;10.6;66.1
68873;BME280;55907;50.806;12.882;2022-12-29T15:38:00;966.4;;;10.6;66.0
68873;BME280;55907;50.806;12.882;2022-12-29T15:41:05;966.6;;;10.5;66.2
68873;BME280;55907;50.806;12.882;2022-12-29T15:44:10;966.6;;;10.4;66.1
68873;BME280;55907;50.806;12.882;2022-12-29T15:47:06;966.6;;;10.4;66.3
68873;BME280;55907;50.806;12.882;2022-12-29T15:50:21;966.5;;;10.5;66.2
68873;BME280;55907;50.806;12.882;2022-12-29T15:53:11;966.7;;;10.4;66.4
68873;BME280;55907;50.806;12.882;2022-12-29T15:56:10;966.7;;;10.4;66.6
68873;BME280;55907;50.806;12.882;2022-12-29T15:59:23;966.8;;;10.4;66.8
68873;BME280;55907;50.806;12.882;2022-12-29T16:02:11;966.8;;;10.4;67.2
68873;BME280;55907;50.806;12.882;2022-12-29T16:05:15;966.8;;;10.3;67.7
68873;BME280;55907;50.806;12.882;2022-12-29T16:08:23;967.0;;;10.3;68.0
68873;BME280;55907;50.806;12.882;2022-12-29T16:11:21;967.0;;;10.4;67.9
68873;BME280;55907;50.806;12.882;2022-12-29T16:17:21;967.0;;;10.3;68.4
68873;BME280;55907;50.806;12.882;2022-12-29T16:20:23;967.0;;;10.3;68.5
68873;BME280;55907;50.806;12.882;2022-12-29T16:23:24;967.0;;;10.2;69.0
68873;BME280;55907;50.806;12.882;2022-12-29T16:26:24;967.0;;;10.2;69.0
68873;BME280;55907;50.806;12.882;2022-12-29T16:29:25;967.0;;;10.3;68.7
68873;BME280;55907;50.806;12.882;2022-12-29T16:32:28;966.9;;;10.3;68.8
68873;BME280;55907;50.806;12.882;2022-12-29T16:35:29;966.9;;;10.3;69.0
68873;BME280;55907;50.806;12.882;2022-12-29T16:38:32;967.0;;;10.3;69.3
68873;BME280;55907;50.806;12.882;2022-12-29T16:41:31;966.9;;;10.2;69.6
68873;BME280;55907;50.806;12.882;2022-12-29T16:44:32;966.9;;;10.1;69.9
68873;BME280;55907;50.806;12.882;2022-12-29T16:47:34;966.8;;;10.2;69.6
68873;BME280;55907;50.806;12.882;2022-12-29T16:50:37;966.9;;;10.1;69.8
68873;BME280;55907;50.806;12.882;2022-12-29T16:53:38;966.8;;;10.1;69.8
68873;BME280;55907;50.806;12.882;2022-12-29T16:59:42;966.9;;;10.0;70.3
68873;BME280;55907;50.806;12.882;2022-12-29T17:02:41;966.9;;;10.0;70.6
68873;BME280;55907;50.806;12.882;2022-12-29T17:05:43;967.0;;;9.9;71.0
68873;BME280;55907;50.806;12.882;2022-12-29T17:08:45;966.9;;;9.8;71.6
68873;BME280;55907;50.806;12.882;2022-12-29T17:11:47;966.9;;;9.8;71.5
68873;BME280;55907;50.806;12.882;2022-12-29T17:17:49;966.9;;;9.8;72.1
68873;BME280;55907;50.806;12.882;2022-12-29T17:20:50;966.9;;;9.7;72.5
68873;BME280;55907;50.806;12.882;2022-12-29T17:23:52;966.9;;;9.7;72.4
68873;BME280;55907;50.806;12.882;2022-12-29T17:26:56;966.9;;;9.7;72.6
68873;BME280;55907;50.806;12.882;2022-12-29T17:29:58;966.9;;;9.7;72.9
68873;BME280;55907;50.806;12.882;2022-12-29T17:32:58;966.8;;;9.6;73.5
68873;BME280;55907;50.806;12.882;2022-12-29T17:35:58;966.8;;;9.6;73.6
68873;BME280;55907;50.806;12.882;2022-12-29T17:38:59;966.9;;;9.6;73.9